createdAt,value
2022-07-31T00:02:08.583Z,8.48
2022-07-31T00:07:01.928Z,18.35
2022-07-31T00:09:53.193Z,9.60
2022-07-31T00:12:17.361Z,11.25
2022-07-31T00:14:44.582Z,6.80
2022-07-31T00:17:11.111Z,8.23
2022-07-31T00:19:37.679Z,9.75
2022-07-31T00:22:04.488Z,10.07
2022-07-31T00:24:31.035Z,7.53
2022-07-31T00:26:57.585Z,6.65
2022-07-31T00:31:51.041Z,8.45
2022-07-31T00:34:17.893Z,8.02
2022-07-31T00:36:44.386Z,9.02
2022-07-31T00:39:10.992Z,9.57
2022-07-31T00:44:05.764Z,8.38
2022-07-31T00:46:40.232Z,6.38
2022-07-31T00:49:10.075Z,9.82
2022-07-31T00:51:38.257Z,7.65
2022-07-31T00:54:06.652Z,9.98
2022-07-31T00:56:33.265Z,6.72
2022-07-31T00:59:00.137Z,7.03
2022-07-31T01:01:27.700Z,8.43
2022-07-31T01:03:54.810Z,8.00
2022-07-31T01:06:21.404Z,10.18
2022-07-31T01:08:48.094Z,10.00
2022-07-31T01:11:22.519Z,11.48
2022-07-31T01:14:00.612Z,11.27
2022-07-31T01:16:33.367Z,10.38
2022-07-31T01:19:01.249Z,13.05
2022-07-31T01:21:42.857Z,8.48
2022-07-31T01:24:29.665Z,8.13
2022-07-31T01:27:13.674Z,10.45
2022-07-31T01:29:49.627Z,6.75
2022-07-31T01:32:21.183Z,6.43
2022-07-31T01:35:04.859Z,6.95
2022-07-31T01:37:36.374Z,11.85
2022-07-31T01:40:11.810Z,10.07
2022-07-31T01:42:42.521Z,11.73
2022-07-31T01:45:10.802Z,9.50
2022-07-31T01:47:41.917Z,9.07
2022-07-31T01:50:09.820Z,12.27
2022-07-31T01:52:58.492Z,9.43
2022-07-31T01:55:27.009Z,8.80
2022-07-31T01:57:55.669Z,10.60
2022-07-31T02:00:33.811Z,8.82
2022-07-31T02:03:09.905Z,8.02
2022-07-31T02:08:09.362Z,9.77
2022-07-31T02:10:39.639Z,8.93
2022-07-31T02:13:07.456Z,10.10
2022-07-31T02:15:35.766Z,9.38
2022-07-31T02:18:03.131Z,7.75
2022-07-31T02:20:33.437Z,7.80
2022-07-31T02:23:01.500Z,12.77
2022-07-31T02:25:29.660Z,9.57
2022-07-31T02:27:59.280Z,9.55
2022-07-31T02:30:39.065Z,8.02
2022-07-31T02:33:13.693Z,9.00
2022-07-31T02:35:45.459Z,7.80
2022-07-31T02:38:22.611Z,8.48
2022-07-31T02:40:55.598Z,9.20
2022-07-31T02:43:23.778Z,10.52
2022-07-31T02:45:50.570Z,11.65
2022-07-31T02:48:17.914Z,10.23
2022-07-31T02:50:48.499Z,13.73
2022-07-31T02:53:15.728Z,8.18
2022-07-31T02:55:45.044Z,8.98
2022-07-31T02:58:12.006Z,8.65
2022-07-31T03:00:39.393Z,8.02
2022-07-31T03:03:06.011Z,8.82
2022-07-31T03:07:59.427Z,7.13
2022-07-31T03:10:26.837Z,10.07
2022-07-31T03:13:03.927Z,9.20
2022-07-31T03:15:32.329Z,10.68
2022-07-31T03:17:59.648Z,7.32
2022-07-31T03:20:39.686Z,10.57
2022-07-31T03:23:06.478Z,7.90
2022-07-31T03:25:41.457Z,8.55
2022-07-31T03:28:09.180Z,9.82
2022-07-31T03:30:35.820Z,8.27
2022-07-31T03:35:34.077Z,10.13
2022-07-31T03:38:38.676Z,8.65
2022-07-31T03:40:53.689Z,8.57
2022-07-31T03:45:51.025Z,7.15
2022-07-31T03:48:17.578Z,9.32
2022-07-31T03:50:44.998Z,10.43
2022-07-31T03:53:12.548Z,9.52
2022-07-31T03:55:43.775Z,10.68
2022-07-31T03:58:11.574Z,8.38
2022-07-31T04:00:39.200Z,8.35
2022-07-31T04:03:08.898Z,8.20
2022-07-31T04:05:52.243Z,13.90
2022-07-31T04:08:19.022Z,7.75
2022-07-31T04:10:45.859Z,11.68
2022-07-31T04:13:15.169Z,8.35
2022-07-31T04:15:41.863Z,8.07
2022-07-31T04:20:41.156Z,7.55
2022-07-31T04:25:52.558Z,11.20
2022-07-31T04:28:33.688Z,10.02
2022-07-31T04:31:00.230Z,7.72
2022-07-31T04:33:27.663Z,7.15
2022-07-31T04:35:54.260Z,7.30
2022-07-31T04:40:49.356Z,10.85
2022-07-31T04:43:16.964Z,6.00
2022-07-31T04:45:43.659Z,9.95
2022-07-31T04:48:11.054Z,6.97
2022-07-31T04:50:38.561Z,6.78
2022-07-31T04:53:05.267Z,6.43
2022-07-31T04:55:35.442Z,9.48
2022-07-31T04:58:01.973Z,7.32
2022-07-31T05:00:28.701Z,5.45
2022-07-31T05:02:55.325Z,9.10
2022-07-31T05:05:22.932Z,9.35
2022-07-31T05:10:39.446Z,9.00
2022-07-31T05:13:06.083Z,7.30
2022-07-31T05:15:33.723Z,6.63
2022-07-31T05:20:45.396Z,8.75
2022-07-31T05:23:46.771Z,7.75
2022-07-31T05:26:38.721Z,7.30
2022-07-31T05:29:05.502Z,7.03
2022-07-31T05:31:32.060Z,8.68
2022-07-31T05:36:27.036Z,7.78
2022-07-31T05:38:53.702Z,5.07
2022-07-31T05:41:38.503Z,8.20
2022-07-31T05:44:25.559Z,8.48
2022-07-31T05:49:18.994Z,7.38
2022-07-31T05:51:54.141Z,6.88
2022-07-31T05:54:21.647Z,8.05
2022-07-31T05:57:06.515Z,8.32
2022-07-31T05:59:39.407Z,6.97
2022-07-31T06:04:47.890Z,7.90
2022-07-31T06:07:14.724Z,8.57
2022-07-31T06:09:41.653Z,8.35
2022-07-31T06:12:08.542Z,8.40
2022-07-31T06:14:35.087Z,6.45
2022-07-31T06:17:07.867Z,9.90
2022-07-31T06:19:36.420Z,6.40
2022-07-31T06:22:03.905Z,7.88
2022-07-31T06:24:32.218Z,8.73
2022-07-31T06:27:01.994Z,11.18
2022-07-31T06:29:40.336Z,6.70
2022-07-31T06:32:08.871Z,12.27
2022-07-31T06:34:35.413Z,10.20
2022-07-31T06:37:02.931Z,7.97
2022-07-31T06:42:45.302Z,13.05
2022-07-31T06:45:50.929Z,9.80
2022-07-31T06:48:39.242Z,12.13
2022-07-31T06:51:29.864Z,8.73
2022-07-31T06:53:56.872Z,11.38
2022-07-31T06:56:23.479Z,6.32
2022-07-31T07:01:16.593Z,6.13
2022-07-31T07:03:43.310Z,7.05
2022-07-31T07:06:10.040Z,8.82
2022-07-31T07:08:36.694Z,10.60
2022-07-31T07:13:45.640Z,7.78
2022-07-31T07:16:14.823Z,9.63
2022-07-31T07:18:41.419Z,7.43
2022-07-31T07:23:35.587Z,14.55
2022-07-31T07:26:28.049Z,6.15
2022-07-31T07:31:21.129Z,8.73
2022-07-31T07:33:48.815Z,10.30
2022-07-31T07:36:23.483Z,5.10
2022-07-31T07:39:09.212Z,7.65
2022-07-31T07:41:36.294Z,11.18
2022-07-31T07:44:02.887Z,8.30
2022-07-31T07:46:30.464Z,10.23
2022-07-31T07:49:00.704Z,14.57
2022-07-31T07:51:58.731Z,9.80
2022-07-31T07:54:32.679Z,6.70
2022-07-31T07:57:20.513Z,6.72
2022-07-31T08:03:47.395Z,13.30
2022-07-31T08:05:40.603Z,8.52
2022-07-31T08:08:07.520Z,5.45
2022-07-31T08:11:01.169Z,11.65
2022-07-31T08:13:45.445Z,5.15
2022-07-31T08:16:33.044Z,8.75
2022-07-31T08:19:01.038Z,7.63
2022-07-31T08:21:27.852Z,5.57
2022-07-31T08:23:54.844Z,6.32
2022-07-31T08:26:21.391Z,4.57
2022-07-31T08:28:50.023Z,5.20
2022-07-31T08:31:19.960Z,5.70
2022-07-31T08:34:00.813Z,6.90
2022-07-31T08:36:27.445Z,4.20
2022-07-31T08:38:54.481Z,7.75
2022-07-31T08:41:56.453Z,6.95
2022-07-31T08:44:25.850Z,8.93
2022-07-31T08:46:58.403Z,4.43
2022-07-31T08:49:27.113Z,14.02
2022-07-31T08:51:55.601Z,6.45
2022-07-31T08:54:43.966Z,5.35
2022-07-31T08:57:13.034Z,3.72
2022-07-31T08:59:43.656Z,6.25
2022-07-31T09:02:11.466Z,7.70
2022-07-31T09:04:52.297Z,3.67
2022-07-31T09:07:19.259Z,4.80
2022-07-31T09:09:51.433Z,6.78
2022-07-31T09:12:33.320Z,5.97
2022-07-31T09:15:27.665Z,8.35
2022-07-31T09:17:56.066Z,6.22
2022-07-31T09:20:26.029Z,4.75
2022-07-31T09:23:13.236Z,4.30
2022-07-31T09:25:57.042Z,4.50
2022-07-31T09:28:39.467Z,7.55
2022-07-31T09:31:07.871Z,4.70
2022-07-31T09:33:49.275Z,5.05
2022-07-31T09:36:44.875Z,7.40
2022-07-31T09:39:31.515Z,4.78
2022-07-31T09:42:22.622Z,5.90
2022-07-31T09:44:54.931Z,6.45
2022-07-31T09:47:28.832Z,3.47
2022-07-31T09:50:02.769Z,3.75
2022-07-31T09:52:31.406Z,4.05
2022-07-31T09:55:22.092Z,3.83
2022-07-31T09:57:58.452Z,5.07
2022-07-31T10:00:28.745Z,5.78
2022-07-31T10:02:56.634Z,4.10
2022-07-31T10:05:26.975Z,2.15
2022-07-31T10:08:00.386Z,5.78
2022-07-31T10:11:06.053Z,5.25
2022-07-31T10:13:49.589Z,7.38
2022-07-31T10:16:16.963Z,3.28
2022-07-31T10:19:23.461Z,3.13
2022-07-31T10:22:05.208Z,3.50
2022-07-31T10:24:43.095Z,12.20
2022-07-31T10:27:09.970Z,3.42
2022-07-31T10:29:39.633Z,2.85
2022-07-31T10:32:08.261Z,4.20
2022-07-31T10:34:39.046Z,2.35
2022-07-31T10:37:48.065Z,4.65
2022-07-31T10:40:37.100Z,3.28
2022-07-31T10:43:09.873Z,3.53
2022-07-31T10:46:05.987Z,2.20
2022-07-31T10:48:53.521Z,13.18
2022-07-31T10:51:49.436Z,3.10
2022-07-31T10:54:46.465Z,8.80
2022-07-31T10:57:56.361Z,3.83
2022-07-31T11:00:43.131Z,2.50
2022-07-31T11:03:22.799Z,3.63
2022-07-31T11:06:07.907Z,5.13
2022-07-31T11:08:54.979Z,3.60
2022-07-31T11:11:57.036Z,2.70
2022-07-31T11:14:44.776Z,5.78
2022-07-31T11:18:22.484Z,2.63
2022-07-31T11:20:32.062Z,3.33
2022-07-31T11:23:06.166Z,7.13
2022-07-31T11:25:35.526Z,5.88
2022-07-31T11:28:23.546Z,3.08
2022-07-31T11:30:57.691Z,3.70
2022-07-31T11:33:42.794Z,2.97
2022-07-31T11:36:16.318Z,4.85
2022-07-31T11:38:49.436Z,4.35
2022-07-31T11:41:17.415Z,3.75
2022-07-31T11:43:54.096Z,6.20
2022-07-31T11:46:32.029Z,2.65
2022-07-31T11:48:59.835Z,5.00
2022-07-31T11:51:27.655Z,6.95
2022-07-31T11:53:57.500Z,6.35
2022-07-31T11:56:26.640Z,6.25
2022-07-31T11:58:55.446Z,6.18
2022-07-31T12:01:29.712Z,2.90
2022-07-31T12:04:04.700Z,1.98
2022-07-31T12:06:36.600Z,8.13
2022-07-31T12:09:04.076Z,6.90
2022-07-31T12:11:30.717Z,6.43
2022-07-31T12:13:57.244Z,3.28
2022-07-31T12:16:23.910Z,6.00
2022-07-31T12:18:53.892Z,4.07
2022-07-31T12:21:29.326Z,7.00
2022-07-31T12:23:55.906Z,5.35
2022-07-31T12:26:26.970Z,4.13
2022-07-31T12:29:02.458Z,2.95
2022-07-31T12:31:30.523Z,2.60
2022-07-31T12:33:57.371Z,4.25
2022-07-31T12:36:24.016Z,2.13
2022-07-31T12:39:01.173Z,3.80
2022-07-31T12:41:28.742Z,3.65
2022-07-31T12:43:55.488Z,4.93
2022-07-31T12:46:34.844Z,3.10
2022-07-31T12:49:01.489Z,2.83
2022-07-31T12:51:45.987Z,7.32
2022-07-31T12:54:17.030Z,2.88
2022-07-31T12:56:45.018Z,2.47
2022-07-31T12:59:12.194Z,1.90
2022-07-31T13:01:39.081Z,3.67
2022-07-31T13:04:07.727Z,3.33
2022-07-31T13:06:45.714Z,1.85
2022-07-31T13:09:12.258Z,3.03
2022-07-31T13:11:45.914Z,3.88
2022-07-31T13:14:18.994Z,3.10
2022-07-31T13:16:46.536Z,1.80
2022-07-31T13:19:13.721Z,6.38
2022-07-31T13:21:48.300Z,7.32
2022-07-31T13:24:20.391Z,3.63
2022-07-31T13:26:50.422Z,3.05
2022-07-31T13:29:17.314Z,5.07
2022-07-31T13:31:44.197Z,4.57
2022-07-31T13:34:10.979Z,3.28
2022-07-31T13:36:38.905Z,5.20
2022-07-31T13:39:09.223Z,3.60
2022-07-31T13:41:38.780Z,3.15
2022-07-31T13:44:06.899Z,6.32
2022-07-31T13:46:33.760Z,2.83
2022-07-31T13:49:02.215Z,2.83
2022-07-31T13:51:29.805Z,2.55
2022-07-31T13:53:56.494Z,3.22
2022-07-31T13:56:39.144Z,2.20
2022-07-31T13:59:11.737Z,3.15
2022-07-31T14:02:03.849Z,7.75
2022-07-31T14:04:30.396Z,3.67
2022-07-31T14:07:00.981Z,3.42
2022-07-31T14:09:28.030Z,6.60
2022-07-31T14:11:54.655Z,3.03
2022-07-31T14:14:23.721Z,3.05
2022-07-31T14:16:50.573Z,4.13
2022-07-31T14:19:17.126Z,3.97
2022-07-31T14:21:56.467Z,1.35
2022-07-31T14:24:25.638Z,10.68
2022-07-31T14:26:53.038Z,2.03
2022-07-31T14:29:19.703Z,2.35
2022-07-31T14:31:46.212Z,3.85
2022-07-31T14:34:12.762Z,1.45
2022-07-31T14:36:39.296Z,4.57
2022-07-31T14:39:05.913Z,5.45
2022-07-31T14:41:32.397Z,2.15
2022-07-31T14:43:58.936Z,3.03
2022-07-31T14:46:25.450Z,4.50
2022-07-31T14:48:52.072Z,4.45
2022-07-31T14:51:19.475Z,2.13
2022-07-31T14:53:47.049Z,5.07
2022-07-31T14:56:15.119Z,1.58
2022-07-31T14:58:57.679Z,2.55
2022-07-31T15:01:26.878Z,3.40
2022-07-31T15:03:57.860Z,1.77
2022-07-31T15:06:48.788Z,4.85
2022-07-31T15:09:11.027Z,4.03
2022-07-31T15:11:59.824Z,2.53
2022-07-31T15:14:24.270Z,3.03
2022-07-31T15:16:50.773Z,4.38
2022-07-31T15:19:17.414Z,4.90
2022-07-31T15:22:11.050Z,3.65
2022-07-31T15:24:33.646Z,4.18
2022-07-31T15:27:00.092Z,2.28
2022-07-31T15:30:05.643Z,2.28
2022-07-31T15:32:13.942Z,3.33
2022-07-31T15:34:40.471Z,3.55
2022-07-31T15:37:07.477Z,3.05
2022-07-31T15:39:34.267Z,3.88
2022-07-31T15:42:01.647Z,4.78
2022-07-31T15:44:28.170Z,4.78
2022-07-31T15:46:54.860Z,3.83
2022-07-31T15:49:22.075Z,3.13
2022-07-31T15:51:48.619Z,8.95
2022-07-31T15:54:15.261Z,4.55
2022-07-31T15:56:41.800Z,5.53
2022-07-31T15:59:08.284Z,4.43
2022-07-31T16:01:34.860Z,4.05
2022-07-31T16:04:02.941Z,2.38
2022-07-31T16:06:43.848Z,6.05
2022-07-31T16:09:16.219Z,6.88
2022-07-31T16:12:03.523Z,4.15
2022-07-31T16:14:29.215Z,2.60
2022-07-31T16:16:56.875Z,2.75
2022-07-31T16:19:25.273Z,2.42
2022-07-31T16:21:52.962Z,5.50
2022-07-31T16:24:22.301Z,3.83
2022-07-31T16:26:49.750Z,3.40
2022-07-31T16:29:17.769Z,3.90
2022-07-31T16:32:03.865Z,2.60
2022-07-31T16:34:30.311Z,3.72
2022-07-31T16:36:56.803Z,2.25
2022-07-31T16:39:23.267Z,2.53
2022-07-31T16:41:51.912Z,2.28
2022-07-31T16:44:21.805Z,2.15
2022-07-31T16:46:52.805Z,2.15
2022-07-31T16:49:36.137Z,1.98
2022-07-31T16:52:07.131Z,2.33
2022-07-31T16:54:33.704Z,2.85
2022-07-31T16:57:00.157Z,1.50
2022-07-31T16:59:26.741Z,4.88
2022-07-31T17:01:59.756Z,2.70
2022-07-31T17:04:27.831Z,3.53
2022-07-31T17:06:55.112Z,2.35
2022-07-31T17:09:22.031Z,3.75
2022-07-31T17:11:52.194Z,1.75
2022-07-31T17:14:20.703Z,4.85
2022-07-31T17:16:49.348Z,4.57
2022-07-31T17:19:35.852Z,2.45
2022-07-31T17:22:11.180Z,2.90
2022-07-31T17:24:38.712Z,5.00
2022-07-31T17:27:09.630Z,2.63
2022-07-31T17:29:38.187Z,4.78
2022-07-31T17:32:05.294Z,2.72
2022-07-31T17:34:31.744Z,1.52
2022-07-31T17:36:58.295Z,2.58
2022-07-31T17:39:28.712Z,4.18
2022-07-31T17:41:57.511Z,3.65
2022-07-31T17:44:23.970Z,2.15
2022-07-31T17:46:51.560Z,3.28
2022-07-31T17:49:19.630Z,1.65
2022-07-31T17:51:59.082Z,3.35
2022-07-31T17:54:34.246Z,1.92
2022-07-31T17:57:00.756Z,3.17
2022-07-31T17:59:28.547Z,1.52
2022-07-31T18:02:03.696Z,2.92
2022-07-31T18:04:33.024Z,2.42
2022-07-31T18:07:01.724Z,2.50
2022-07-31T18:09:28.616Z,2.25
2022-07-31T18:11:56.338Z,2.50
2022-07-31T18:14:24.271Z,2.72
2022-07-31T18:16:51.951Z,2.38
2022-07-31T18:19:18.789Z,2.50
2022-07-31T18:21:45.265Z,5.22
2022-07-31T18:24:11.746Z,3.85
2022-07-31T18:26:38.219Z,4.85
2022-07-31T18:29:05.161Z,2.13
2022-07-31T18:31:34.223Z,4.28
2022-07-31T18:34:01.941Z,3.15
2022-07-31T18:36:28.396Z,1.50
2022-07-31T18:38:54.910Z,3.45
2022-07-31T18:41:21.358Z,1.60
2022-07-31T18:43:47.956Z,6.38
2022-07-31T18:46:14.721Z,5.15
2022-07-31T18:48:41.239Z,1.77
2022-07-31T18:51:08.171Z,2.67
2022-07-31T18:53:34.827Z,2.22
2022-07-31T18:56:02.072Z,2.83
2022-07-31T18:58:28.657Z,2.03
2022-07-31T19:00:55.724Z,1.77
2022-07-31T19:03:24.278Z,3.80
2022-07-31T19:05:52.839Z,2.42
2022-07-31T19:08:20.304Z,2.08
2022-07-31T19:10:49.134Z,1.75
2022-07-31T19:13:17.249Z,6.63
2022-07-31T19:15:50.541Z,3.67
2022-07-31T19:18:17.632Z,3.25
2022-07-31T19:21:00.245Z,2.45
2022-07-31T19:23:33.911Z,1.95
2022-07-31T19:26:03.375Z,4.28
2022-07-31T19:28:31.785Z,3.83
2022-07-31T19:30:58.277Z,2.50
2022-07-31T19:35:58.536Z,1.95
2022-07-31T19:38:28.353Z,3.13
2022-07-31T19:40:54.926Z,1.67
2022-07-31T19:43:21.521Z,2.15
2022-07-31T19:48:36.428Z,7.90
2022-07-31T19:51:03.148Z,2.80
2022-07-31T19:53:30.225Z,2.75
2022-07-31T19:55:57.241Z,1.35
2022-07-31T19:58:23.737Z,3.15
2022-07-31T20:00:50.244Z,1.70
2022-07-31T20:05:43.360Z,5.57
2022-07-31T20:10:36.863Z,1.83
2022-07-31T20:13:03.499Z,2.15
2022-07-31T20:15:51.354Z,1.88
2022-07-31T20:18:23.605Z,5.18
2022-07-31T20:20:59.062Z,2.40
2022-07-31T20:23:26.940Z,3.00
2022-07-31T20:25:53.676Z,5.35
2022-07-31T20:28:20.483Z,3.55
2022-07-31T20:30:46.942Z,5.40
2022-07-31T20:33:13.653Z,2.58
2022-07-31T20:35:48.398Z,2.58
2022-07-31T20:38:20.608Z,2.78
2022-07-31T20:40:53.654Z,4.30
2022-07-31T20:43:23.826Z,4.40
2022-07-31T20:45:51.394Z,3.28
2022-07-31T20:48:17.945Z,2.40
2022-07-31T20:53:15.866Z,4.93
2022-07-31T20:55:46.695Z,6.22
2022-07-31T20:58:13.366Z,3.17
2022-07-31T21:03:06.760Z,2.83
2022-07-31T21:05:33.288Z,2.20
2022-07-31T21:10:29.531Z,5.72
2022-07-31T21:12:57.423Z,3.42
2022-07-31T21:15:42.608Z,3.65
2022-07-31T21:18:15.839Z,2.88
2022-07-31T21:20:51.550Z,5.93
2022-07-31T21:23:22.680Z,3.45
2022-07-31T21:25:50.321Z,3.83
2022-07-31T21:28:17.151Z,3.65
2022-07-31T21:30:43.729Z,3.88
2022-07-31T21:35:39.666Z,2.88
2022-07-31T21:38:10.215Z,5.38
2022-07-31T21:40:38.870Z,3.10
2022-07-31T21:43:05.782Z,5.03
2022-07-31T21:45:43.407Z,5.28
2022-07-31T21:48:18.954Z,4.97
2022-07-31T21:50:46.288Z,5.53
2022-07-31T21:53:13.990Z,4.30
2022-07-31T21:55:41.050Z,2.58
2022-07-31T21:58:08.125Z,4.13
2022-07-31T22:02:15.456Z,3.65
2022-07-31T22:05:00.831Z,3.55
2022-07-31T22:07:33.270Z,3.95
2022-07-31T22:10:00.170Z,3.35
2022-07-31T22:12:27.671Z,3.97
2022-07-31T22:14:54.636Z,3.67
2022-07-31T22:17:21.234Z,3.75
2022-07-31T22:19:50.124Z,3.30
2022-07-31T22:22:17.063Z,2.80
2022-07-31T22:24:43.889Z,7.45
2022-07-31T22:27:29.441Z,4.63
2022-07-31T22:29:56.573Z,3.95
2022-07-31T22:32:23.225Z,3.90
2022-07-31T22:34:49.868Z,3.75
2022-07-31T22:39:44.350Z,3.35
2022-07-31T22:42:10.985Z,2.80
2022-07-31T22:47:06.711Z,3.15
2022-07-31T22:49:35.291Z,2.72
2022-07-31T22:52:04.089Z,5.28
2022-07-31T22:54:31.111Z,2.92
2022-07-31T22:59:24.076Z,4.25
2022-07-31T23:01:50.612Z,3.05
2022-07-31T23:06:43.788Z,3.45
2022-07-31T23:09:10.335Z,3.03
2022-07-31T23:14:03.356Z,5.55
2022-07-31T23:18:56.611Z,5.47
2022-07-31T23:21:23.266Z,2.08
2022-07-31T23:26:21.210Z,3.58
2022-07-31T23:28:48.455Z,4.85
2022-07-31T23:31:15.246Z,2.92
2022-07-31T23:33:41.944Z,4.95
2022-07-31T23:38:34.913Z,4.57
2022-07-31T23:41:01.485Z,4.90
2022-07-31T23:45:54.728Z,6.50
2022-07-31T23:50:47.775Z,2.92
2022-07-31T23:55:42.740Z,4.82
2022-07-31T23:58:09.857Z,2.88
